createdAt,value
2018-06-03T00:01:38.185Z,22.40
2018-06-03T00:06:36.392Z,22.40
2018-06-03T00:09:06.696Z,22.40
2018-06-03T00:11:35.904Z,22.40
2018-06-03T00:14:05.654Z,22.40
2018-06-03T00:16:34.865Z,22.30
2018-06-03T00:19:04.069Z,22.10
2018-06-03T00:21:44.300Z,22.00
2018-06-03T00:24:13.501Z,21.90
2018-06-03T00:26:42.993Z,21.90
2018-06-03T00:29:12.811Z,21.80
2018-06-03T00:31:42.017Z,21.70
2018-06-03T00:34:11.209Z,21.60
2018-06-03T00:36:46.544Z,21.60
2018-06-03T00:39:15.988Z,21.60
2018-06-03T00:41:45.184Z,21.50
2018-06-03T00:44:14.752Z,21.60
2018-06-03T00:46:43.951Z,21.50
2018-06-03T00:49:13.192Z,21.50
2018-06-03T00:51:42.414Z,21.50
2018-06-03T00:54:11.941Z,21.40
2018-06-03T00:56:52.293Z,21.30
2018-06-03T00:59:21.473Z,21.30
2018-06-03T01:01:51.001Z,21.40
2018-06-03T01:04:20.834Z,21.30
2018-06-03T01:06:50.035Z,21.30
2018-06-03T01:09:19.231Z,21.30
2018-06-03T01:11:48.501Z,21.20
2018-06-03T01:16:46.429Z,21.10
2018-06-03T01:19:16.725Z,21.00
2018-06-03T01:21:45.925Z,21.00
2018-06-03T01:24:15.122Z,20.90
2018-06-03T01:26:45.461Z,20.80
2018-06-03T01:29:14.710Z,20.90
2018-06-03T01:31:43.897Z,20.90
2018-06-03T01:34:13.124Z,20.90
2018-06-03T01:36:42.320Z,20.90
2018-06-03T01:39:11.948Z,20.90
2018-06-03T01:41:41.179Z,20.80
2018-06-03T01:44:10.386Z,20.70
2018-06-03T01:46:39.575Z,20.70
2018-06-03T01:49:09.256Z,20.60
2018-06-03T01:51:38.461Z,20.60
2018-06-03T01:54:07.648Z,20.50
2018-06-03T01:56:36.881Z,20.50
2018-06-03T01:59:06.092Z,20.40
2018-06-03T02:01:35.312Z,20.30
2018-06-03T02:04:04.545Z,20.20
2018-06-03T02:06:33.740Z,20.20
2018-06-03T02:09:03.012Z,20.20
2018-06-03T02:11:32.577Z,20.10
2018-06-03T02:14:02.036Z,20.10
2018-06-03T02:16:31.228Z,20.20
2018-06-03T02:19:00.474Z,20.10
2018-06-03T02:21:29.686Z,20.20
2018-06-03T02:23:58.990Z,20.10
2018-06-03T02:26:28.232Z,20.00
2018-06-03T02:28:57.760Z,20.00
2018-06-03T02:31:26.977Z,20.00
2018-06-03T02:33:56.544Z,19.90
2018-06-03T02:36:25.741Z,19.90
2018-06-03T02:38:54.942Z,19.90
2018-06-03T02:41:24.168Z,19.90
2018-06-03T02:43:53.397Z,19.90
2018-06-03T02:46:22.740Z,19.90
2018-06-03T02:48:52.448Z,19.90
2018-06-03T02:51:21.649Z,19.80
2018-06-03T02:56:20.288Z,19.70
2018-06-03T02:58:49.485Z,19.60
2018-06-03T03:01:18.676Z,19.60
2018-06-03T03:03:47.908Z,19.50
2018-06-03T03:06:17.309Z,19.50
2018-06-03T03:08:46.547Z,19.50
2018-06-03T03:11:15.946Z,19.60
2018-06-03T03:13:45.418Z,19.50
2018-06-03T03:16:14.614Z,19.60
2018-06-03T03:18:44.020Z,19.60
2018-06-03T03:21:13.217Z,19.50
2018-06-03T03:23:42.457Z,19.40
2018-06-03T03:26:11.987Z,19.30
2018-06-03T03:28:41.189Z,19.20
2018-06-03T03:31:10.901Z,19.20
2018-06-03T03:33:40.144Z,19.20
2018-06-03T03:36:09.372Z,19.20
2018-06-03T03:41:07.712Z,19.10
2018-06-03T03:43:36.928Z,19.20
2018-06-03T03:46:06.384Z,19.20
2018-06-03T03:48:35.611Z,19.20
2018-06-03T03:51:05.152Z,19.20
2018-06-03T03:53:34.361Z,19.30
2018-06-03T03:56:04.085Z,19.40
2018-06-03T04:01:02.052Z,19.30
2018-06-03T04:03:31.483Z,19.30
2018-06-03T04:06:00.688Z,19.30
2018-06-03T04:08:29.880Z,19.30
2018-06-03T04:10:59.097Z,19.20
2018-06-03T04:13:28.284Z,19.20
2018-06-03T04:15:57.476Z,19.20
2018-06-03T04:18:26.711Z,19.30
2018-06-03T04:20:55.897Z,19.40
2018-06-03T04:23:25.091Z,19.40
2018-06-03T04:25:54.592Z,19.50
2018-06-03T04:28:23.773Z,19.50
2018-06-03T04:30:52.976Z,19.50
2018-06-03T04:33:22.508Z,19.40
2018-06-03T04:35:51.764Z,19.40
2018-06-03T04:38:20.964Z,19.30
2018-06-03T04:40:50.193Z,19.30
2018-06-03T04:43:19.381Z,19.20
2018-06-03T04:45:48.584Z,19.20
2018-06-03T04:48:18.211Z,19.20
2018-06-03T04:50:47.408Z,19.20
2018-06-03T04:53:16.613Z,19.10
2018-06-03T04:55:45.863Z,19.10
2018-06-03T04:58:15.057Z,19.20
2018-06-03T05:03:13.203Z,19.20
2018-06-03T05:05:42.373Z,19.20
2018-06-03T05:08:11.781Z,19.20
2018-06-03T05:10:41.316Z,19.20
2018-06-03T05:13:10.673Z,19.30
2018-06-03T05:15:39.881Z,19.20
2018-06-03T05:18:09.088Z,19.20
2018-06-03T05:20:38.287Z,19.20
2018-06-03T05:23:07.476Z,19.30
2018-06-03T05:25:36.703Z,19.30
2018-06-03T05:28:05.916Z,19.40
2018-06-03T05:30:35.116Z,19.50
2018-06-03T05:33:04.816Z,19.50
2018-06-03T05:35:34.400Z,19.50
2018-06-03T05:38:03.627Z,19.50
2018-06-03T05:40:32.848Z,19.60
2018-06-03T05:43:02.053Z,19.60
2018-06-03T05:45:31.260Z,19.60
2018-06-03T05:48:00.475Z,19.70
2018-06-03T05:50:29.711Z,19.70
2018-06-03T05:52:58.914Z,19.70
2018-06-03T05:55:28.281Z,19.80
2018-06-03T05:57:57.496Z,19.90
2018-06-03T06:00:26.714Z,20.00
2018-06-03T06:02:55.941Z,20.00
2018-06-03T06:05:25.199Z,19.90
2018-06-03T06:07:54.416Z,19.90
2018-06-03T06:10:23.680Z,20.00
2018-06-03T06:12:52.888Z,20.10
2018-06-03T06:15:22.135Z,20.10
2018-06-03T06:17:51.815Z,20.10
2018-06-03T06:20:21.009Z,20.10
2018-06-03T06:22:50.204Z,20.10
2018-06-03T06:25:19.461Z,20.10
2018-06-03T06:27:48.658Z,20.10
2018-06-03T06:30:17.860Z,20.10
2018-06-03T06:32:47.394Z,20.10
2018-06-03T06:35:16.629Z,20.10
2018-06-03T06:37:46.301Z,20.20
2018-06-03T06:40:16.134Z,20.20
2018-06-03T06:42:45.346Z,20.30
2018-06-03T06:45:14.590Z,20.30
2018-06-03T06:47:43.824Z,20.40
2018-06-03T06:50:13.032Z,20.50
2018-06-03T06:52:42.392Z,20.60
2018-06-03T06:55:11.749Z,20.70
2018-06-03T06:57:40.956Z,20.80
2018-06-03T07:00:10.185Z,20.80
2018-06-03T07:02:39.852Z,20.90
2018-06-03T07:05:09.061Z,21.00
2018-06-03T07:07:38.253Z,21.10
2018-06-03T07:10:07.186Z,21.10
2018-06-03T07:12:36.376Z,21.20
2018-06-03T07:15:05.625Z,21.20
2018-06-03T07:17:34.988Z,21.30
2018-06-03T07:20:04.210Z,21.30
2018-06-03T07:22:33.413Z,21.40
2018-06-03T07:25:02.942Z,21.40
2018-06-03T07:27:32.316Z,21.50
2018-06-03T07:30:01.566Z,21.50
2018-06-03T07:32:30.801Z,21.50
2018-06-03T07:37:28.809Z,21.60
2018-06-03T07:39:58.537Z,21.60
2018-06-03T07:42:27.743Z,21.60
2018-06-03T07:44:57.100Z,21.70
2018-06-03T07:47:26.640Z,21.80
2018-06-03T07:49:55.828Z,21.80
2018-06-03T07:52:25.020Z,21.80
2018-06-03T07:54:54.336Z,21.90
2018-06-03T07:57:23.567Z,21.90
2018-06-03T07:59:52.749Z,22.00
2018-06-03T08:02:21.972Z,22.00
2018-06-03T08:04:51.199Z,22.00
2018-06-03T08:07:20.397Z,22.10
2018-06-03T08:09:50.052Z,22.10
2018-06-03T08:12:19.265Z,22.20
2018-06-03T08:14:48.453Z,22.30
2018-06-03T08:17:17.656Z,22.40
2018-06-03T08:19:47.113Z,22.50
2018-06-03T08:22:16.301Z,22.50
2018-06-03T08:24:45.520Z,22.60
2018-06-03T08:27:14.720Z,22.60
2018-06-03T08:29:43.929Z,22.70
2018-06-03T08:32:13.560Z,22.70
2018-06-03T08:34:42.824Z,22.80
2018-06-03T08:37:12.025Z,22.90
2018-06-03T08:39:41.272Z,23.00
2018-06-03T08:42:11.376Z,23.00
2018-06-03T08:44:40.676Z,23.10
2018-06-03T08:47:09.949Z,23.20
2018-06-03T08:49:39.152Z,23.20
2018-06-03T08:52:08.434Z,23.20
2018-06-03T08:54:38.079Z,23.20
2018-06-03T08:57:07.449Z,23.30
2018-06-03T08:59:36.712Z,23.50
2018-06-03T09:02:06.368Z,23.60
2018-06-03T09:04:35.695Z,23.70
2018-06-03T09:07:04.941Z,24.00
2018-06-03T09:12:02.928Z,24.40
2018-06-03T09:14:32.105Z,24.60
2018-06-03T09:17:03.601Z,24.80
2018-06-03T09:19:32.788Z,25.00
2018-06-03T09:22:01.993Z,25.20
2018-06-03T09:24:31.188Z,25.40
2018-06-03T09:27:00.677Z,25.60
2018-06-03T09:29:29.892Z,25.90
2018-06-03T09:31:59.228Z,26.00
2018-06-03T09:34:28.453Z,25.90
2018-06-03T09:36:57.622Z,25.90
2018-06-03T09:39:27.153Z,26.10
2018-06-03T09:41:56.420Z,26.30
2018-06-03T09:44:25.698Z,26.40
2018-06-03T09:46:54.905Z,26.50
2018-06-03T09:49:24.095Z,26.50
2018-06-03T09:51:53.324Z,26.60
2018-06-03T09:54:22.544Z,26.60
2018-06-03T09:56:51.931Z,26.30
2018-06-03T09:59:21.201Z,26.20
2018-06-03T10:01:50.748Z,26.20
2018-06-03T10:04:20.005Z,26.20
2018-06-03T10:06:49.236Z,26.10
2018-06-03T10:09:19.050Z,26.10
2018-06-03T10:11:48.345Z,26.10
2018-06-03T10:14:18.816Z,26.10
2018-06-03T10:16:48.185Z,26.10
2018-06-03T10:19:17.370Z,26.10
2018-06-03T10:21:46.692Z,26.00
2018-06-03T10:24:15.977Z,26.00
2018-06-03T10:26:45.185Z,26.00
2018-06-03T10:29:14.397Z,25.90
2018-06-03T10:31:43.637Z,25.90
2018-06-03T10:34:12.851Z,25.90
2018-06-03T10:36:42.081Z,25.80
2018-06-03T10:39:11.368Z,25.80
2018-06-03T10:41:40.671Z,25.80
2018-06-03T10:44:10.486Z,25.70
2018-06-03T10:46:40.052Z,25.70
2018-06-03T10:54:07.093Z,25.80
2018-06-03T10:56:36.329Z,25.90
2018-06-03T11:01:34.366Z,26.30
2018-06-03T11:04:04.908Z,26.50
2018-06-03T11:06:35.823Z,26.70
2018-06-03T11:09:06.433Z,26.90
2018-06-03T11:11:35.643Z,27.10
2018-06-03T11:14:05.220Z,27.30
2018-06-03T11:16:34.768Z,27.60
2018-06-03T11:19:03.920Z,28.00
2018-06-03T11:24:01.903Z,30.00
2018-06-03T11:26:31.089Z,31.40
2018-06-03T11:29:01.175Z,32.70
2018-06-03T11:31:30.344Z,33.80
2018-06-03T11:34:00.448Z,34.90
2018-06-03T11:36:29.775Z,35.80
2018-06-03T11:38:59.224Z,36.50
2018-06-03T11:41:28.502Z,36.90
2018-06-03T11:43:57.960Z,35.90
2018-06-03T11:46:27.246Z,34.50
2018-06-03T11:48:56.649Z,33.20
2018-06-03T11:51:25.972Z,32.30
2018-06-03T11:53:55.518Z,31.90
2018-06-03T11:59:08.281Z,33.90
2018-06-03T12:01:37.553Z,35.10
2018-06-03T12:04:08.935Z,36.40
2018-06-03T12:06:38.440Z,36.30
2018-06-03T12:09:07.885Z,35.30
2018-06-03T12:11:37.145Z,34.10
2018-06-03T12:14:06.660Z,33.00
2018-06-03T12:16:36.169Z,32.20
2018-06-03T12:19:05.601Z,31.60
2018-06-03T12:21:34.831Z,31.20
2018-06-03T12:24:04.060Z,31.00
2018-06-03T12:26:33.523Z,31.90
2018-06-03T12:29:03.060Z,33.80
2018-06-03T12:31:32.272Z,35.40
2018-06-03T12:34:01.836Z,36.80
2018-06-03T12:36:31.061Z,37.80
2018-06-03T12:39:00.454Z,38.60
2018-06-03T12:41:29.669Z,39.00
2018-06-03T12:43:59.189Z,39.50
2018-06-03T12:46:30.433Z,39.80
2018-06-03T12:48:59.757Z,39.60
2018-06-03T12:51:29.132Z,38.80
2018-06-03T12:53:58.664Z,37.50
2018-06-03T12:56:27.866Z,36.20
2018-06-03T12:58:57.151Z,35.00
2018-06-03T13:01:26.348Z,34.00
2018-06-03T13:03:55.885Z,33.50
2018-06-03T13:06:25.137Z,33.10
2018-06-03T13:08:54.752Z,33.70
2018-06-03T13:11:23.952Z,35.60
2018-06-03T13:16:22.056Z,38.80
2018-06-03T13:18:51.257Z,39.40
2018-06-03T13:21:20.469Z,39.30
2018-06-03T13:23:49.668Z,38.30
2018-06-03T13:26:18.996Z,37.40
2018-06-03T13:28:48.209Z,37.90
2018-06-03T13:31:17.453Z,39.20
2018-06-03T13:33:46.684Z,40.30
2018-06-03T13:36:16.818Z,40.30
2018-06-03T13:38:46.256Z,39.20
2018-06-03T13:41:15.680Z,38.10
2018-06-03T13:43:45.069Z,37.00
2018-06-03T13:46:14.908Z,36.70
2018-06-03T13:48:44.239Z,37.20
2018-06-03T13:51:13.545Z,37.20
2018-06-03T13:53:44.099Z,37.20
2018-06-03T13:56:13.887Z,37.00
2018-06-03T13:58:43.369Z,36.20
2018-06-03T14:01:12.548Z,35.40
2018-06-03T14:03:41.829Z,35.10
2018-06-03T14:06:11.055Z,36.10
2018-06-03T14:08:40.318Z,37.80
2018-06-03T14:11:10.001Z,39.40
2018-06-03T14:13:40.285Z,40.70
2018-06-03T14:16:10.096Z,41.80
2018-06-03T14:18:39.312Z,42.80
2018-06-03T14:21:09.445Z,43.40
2018-06-03T14:23:38.677Z,43.90
2018-06-03T14:26:07.981Z,44.20
2018-06-03T14:28:37.203Z,44.80
2018-06-03T14:31:06.456Z,45.50
2018-06-03T14:33:35.636Z,45.50
2018-06-03T14:36:04.868Z,44.20
2018-06-03T14:38:34.308Z,43.10
2018-06-03T14:41:03.553Z,43.50
2018-06-03T14:43:33.188Z,44.20
2018-06-03T14:46:02.928Z,44.90
2018-06-03T14:48:32.204Z,45.50
2018-06-03T14:53:30.958Z,46.10
2018-06-03T14:56:00.233Z,45.80
2018-06-03T14:58:29.526Z,46.00
2018-06-03T15:00:58.790Z,46.30
2018-06-03T15:03:27.980Z,45.30
2018-06-03T15:05:57.636Z,43.60
2018-06-03T15:08:26.949Z,42.40
2018-06-03T15:10:56.152Z,41.70
2018-06-03T15:13:25.626Z,42.20
2018-06-03T15:15:54.856Z,42.40
2018-06-03T15:18:24.173Z,41.70
2018-06-03T15:20:54.452Z,42.30
2018-06-03T15:23:24.017Z,43.30
2018-06-03T15:25:53.212Z,44.40
2018-06-03T15:28:22.835Z,45.30
2018-06-03T15:30:52.232Z,45.90
2018-06-03T15:33:21.617Z,46.20
2018-06-03T15:35:50.884Z,45.80
2018-06-03T15:38:21.432Z,44.80
2018-06-03T15:40:51.066Z,43.70
2018-06-03T15:43:20.284Z,43.00
2018-06-03T15:45:49.509Z,43.30
2018-06-03T15:50:48.033Z,42.30
2018-06-03T15:53:17.550Z,43.00
2018-06-03T15:55:47.374Z,43.80
2018-06-03T15:58:16.590Z,44.60
2018-06-03T16:00:46.075Z,45.20
2018-06-03T16:03:15.383Z,45.50
2018-06-03T16:05:45.125Z,45.40
2018-06-03T16:08:14.324Z,45.60
2018-06-03T16:10:43.574Z,45.70
2018-06-03T16:13:13.596Z,45.70
2018-06-03T16:15:42.841Z,45.90
2018-06-03T16:18:13.299Z,46.00
2018-06-03T16:20:42.529Z,46.10
2018-06-03T16:23:11.725Z,46.10
2018-06-03T16:25:40.972Z,46.30
2018-06-03T16:28:10.221Z,46.30
2018-06-03T16:30:39.712Z,46.30
2018-06-03T16:33:08.933Z,46.30
2018-06-03T16:35:38.656Z,46.30
2018-06-03T16:38:08.035Z,46.40
2018-06-03T16:40:37.225Z,46.40
2018-06-03T16:43:06.653Z,46.40
2018-06-03T16:45:35.888Z,46.20
2018-06-03T16:48:05.121Z,46.00
2018-06-03T16:50:34.510Z,45.80
2018-06-03T16:53:03.832Z,45.50
2018-06-03T16:55:33.025Z,45.20
2018-06-03T16:58:02.301Z,44.80
2018-06-03T17:00:31.504Z,44.60
2018-06-03T17:03:00.688Z,44.60
2018-06-03T17:05:30.014Z,44.70
2018-06-03T17:07:59.208Z,44.70
2018-06-03T17:12:57.329Z,44.20
2018-06-03T17:15:26.608Z,44.20
2018-06-03T17:17:55.891Z,44.00
2018-06-03T17:20:25.221Z,43.80
2018-06-03T17:22:54.407Z,43.50
2018-06-03T17:27:52.512Z,43.30
2018-06-03T17:30:21.692Z,43.30
2018-06-03T17:32:50.868Z,43.10
2018-06-03T17:35:20.085Z,43.00
2018-06-03T17:37:49.279Z,42.70
2018-06-03T17:40:19.671Z,42.50
2018-06-03T17:42:49.048Z,42.20
2018-06-03T17:45:18.257Z,41.90
2018-06-03T17:47:47.599Z,41.70
2018-06-03T17:50:16.792Z,41.50
2018-06-03T17:52:46.200Z,41.30
2018-06-03T17:55:15.768Z,41.20
2018-06-03T17:57:45.076Z,41.00
2018-06-03T18:00:14.289Z,40.80
2018-06-03T18:02:43.528Z,40.50
2018-06-03T18:05:14.373Z,40.20
2018-06-03T18:07:43.572Z,39.60
2018-06-03T18:10:13.052Z,38.60
2018-06-03T18:12:42.285Z,37.60
2018-06-03T18:15:12.549Z,36.80
2018-06-03T18:17:41.921Z,36.20
2018-06-03T18:20:11.169Z,35.70
2018-06-03T18:22:40.465Z,35.20
2018-06-03T18:25:09.657Z,34.90
2018-06-03T18:27:39.308Z,34.60
2018-06-03T18:30:08.494Z,34.40
2018-06-03T18:32:37.681Z,34.10
2018-06-03T18:35:06.920Z,34.00
2018-06-03T18:37:36.292Z,33.70
2018-06-03T18:40:05.521Z,33.50
2018-06-03T18:42:35.780Z,33.20
2018-06-03T18:45:05.129Z,33.00
2018-06-03T18:47:34.414Z,32.80
2018-06-03T18:50:03.716Z,32.60
2018-06-03T18:52:32.884Z,32.50
2018-06-03T18:55:02.086Z,32.30
2018-06-03T18:57:31.308Z,32.10
2018-06-03T19:00:01.305Z,31.90
2018-06-03T19:02:30.845Z,31.80
2018-06-03T19:05:00.654Z,31.70
2018-06-03T19:07:30.016Z,31.50
2018-06-03T19:09:59.279Z,31.40
2018-06-03T19:12:28.591Z,31.20
2018-06-03T19:14:57.908Z,31.10
2018-06-03T19:17:27.084Z,31.00
2018-06-03T19:19:56.380Z,30.90
2018-06-03T19:22:25.545Z,30.70
2018-06-03T19:24:54.756Z,30.60
2018-06-03T19:27:23.966Z,30.50
2018-06-03T19:29:53.161Z,30.30
2018-06-03T19:32:22.433Z,30.20
2018-06-03T19:34:51.963Z,30.10
2018-06-03T19:37:21.145Z,30.00
2018-06-03T19:39:50.331Z,29.90
2018-06-03T19:42:19.541Z,29.70
2018-06-03T19:44:48.775Z,29.60
2018-06-03T19:47:18.189Z,29.50
2018-06-03T19:49:47.545Z,29.30
2018-06-03T19:52:16.755Z,29.20
2018-06-03T19:54:46.045Z,29.00
2018-06-03T19:57:15.978Z,28.90
2018-06-03T19:59:45.364Z,28.80
2018-06-03T20:02:14.637Z,28.70
2018-06-03T20:04:43.844Z,28.60
2018-06-03T20:07:13.033Z,28.60
2018-06-03T20:09:42.233Z,28.40
2018-06-03T20:12:11.532Z,28.40
2018-06-03T20:14:40.700Z,28.20
2018-06-03T20:17:11.075Z,28.20
2018-06-03T20:19:40.606Z,28.10
2018-06-03T20:22:09.803Z,28.10
2018-06-03T20:24:39.043Z,28.10
2018-06-03T20:27:08.630Z,28.00
2018-06-03T20:29:37.829Z,27.80
2018-06-03T20:32:07.024Z,27.70
2018-06-03T20:34:36.356Z,27.50
2018-06-03T20:37:05.761Z,27.30
2018-06-03T20:39:34.964Z,27.30
2018-06-03T20:42:04.316Z,27.20
2018-06-03T20:44:33.977Z,27.10
2018-06-03T20:49:32.006Z,26.90
2018-06-03T20:52:01.193Z,26.80
2018-06-03T20:54:30.626Z,26.70
2018-06-03T20:56:59.895Z,26.60
2018-06-03T20:59:30.395Z,26.60
2018-06-03T21:04:29.105Z,26.50
2018-06-03T21:06:58.600Z,26.50
2018-06-03T21:11:56.616Z,26.40
2018-06-03T21:14:25.852Z,26.30
2018-06-03T21:16:55.209Z,26.30
2018-06-03T21:19:24.535Z,26.20
2018-06-03T21:21:53.764Z,26.10
2018-06-03T21:24:23.438Z,26.10
2018-06-03T21:26:52.956Z,26.10
2018-06-03T21:29:22.143Z,26.00
2018-06-03T21:31:51.337Z,26.00
2018-06-03T21:34:20.539Z,25.90
2018-06-03T21:36:49.733Z,25.90
2018-06-03T21:39:18.949Z,25.90
2018-06-03T21:41:48.156Z,25.80
2018-06-03T21:44:17.367Z,25.80
2018-06-03T21:46:46.569Z,25.80
2018-06-03T21:49:16.048Z,25.70
2018-06-03T21:51:45.223Z,25.60
2018-06-03T21:54:14.404Z,25.50
2018-06-03T21:59:12.429Z,25.40
2018-06-03T22:01:42.329Z,25.40
2018-06-03T22:04:11.550Z,25.30
2018-06-03T22:06:41.077Z,25.30
2018-06-03T22:09:10.446Z,25.30
2018-06-03T22:11:39.982Z,25.20
2018-06-03T22:14:09.177Z,25.20
2018-06-03T22:16:38.357Z,25.20
2018-06-03T22:19:07.836Z,25.20
2018-06-03T22:21:37.029Z,25.10
2018-06-03T22:24:06.245Z,25.10
2018-06-03T22:26:35.659Z,25.00
2018-06-03T22:29:05.279Z,24.90
2018-06-03T22:31:34.465Z,24.90
2018-06-03T22:34:04.120Z,25.00
2018-06-03T22:39:02.118Z,24.80
2018-06-03T22:41:31.312Z,24.90
2018-06-03T22:46:29.360Z,24.80
2018-06-03T22:48:58.560Z,24.70
2018-06-03T22:51:27.758Z,24.60
2018-06-03T22:53:56.940Z,24.50
2018-06-03T22:56:31.000Z,24.50
2018-06-03T22:59:00.177Z,24.60
2018-06-03T23:01:29.405Z,24.40
2018-06-03T23:03:59.013Z,24.20
2018-06-03T23:06:28.196Z,24.00
2018-06-03T23:08:57.352Z,23.90
2018-06-03T23:11:26.534Z,23.90
2018-06-03T23:13:55.691Z,23.80
2018-06-03T23:16:24.847Z,23.80
2018-06-03T23:18:54.547Z,23.70
2018-06-03T23:21:23.707Z,23.60
2018-06-03T23:23:53.200Z,23.60
2018-06-03T23:26:22.387Z,23.60
2018-06-03T23:28:51.547Z,23.60
2018-06-03T23:31:20.690Z,23.60
2018-06-03T23:33:49.851Z,23.60
2018-06-03T23:36:19.012Z,23.70
2018-06-03T23:41:17.320Z,23.60
2018-06-03T23:43:46.727Z,23.50
2018-06-03T23:46:15.875Z,23.50
2018-06-03T23:48:45.035Z,23.40
2018-06-03T23:51:14.180Z,23.20
2018-06-03T23:53:43.318Z,23.20
2018-06-03T23:56:12.487Z,23.10
2018-06-03T23:58:41.640Z,23.10
